createdAt,value
2022-11-02T00:00:01.898Z,3
2022-11-02T00:05:02.436Z,3
2022-11-02T00:10:01.945Z,1
2022-11-02T00:15:02.422Z,1
2022-11-02T00:20:01.972Z,1
2022-11-02T00:25:01.394Z,3
2022-11-02T00:30:01.917Z,1
2022-11-02T00:35:02.403Z,3
2022-11-02T00:40:01.789Z,1
2022-11-02T00:45:02.262Z,1
2022-11-02T00:50:01.720Z,1
2022-11-02T00:55:02.203Z,1
2022-11-02T01:00:01.559Z,1
2022-11-02T01:05:02.041Z,3
2022-11-02T01:10:01.549Z,1
2022-11-02T01:15:01.898Z,0
2022-11-02T01:20:01.460Z,0
2022-11-02T01:25:01.945Z,0
2022-11-02T01:30:02.417Z,0
2022-11-02T01:35:01.935Z,0
2022-11-02T01:40:01.448Z,0
2022-11-02T01:45:01.805Z,0
2022-11-02T01:50:02.276Z,0
2022-11-02T01:55:01.739Z,1
2022-11-02T02:00:02.238Z,2
2022-11-02T02:05:01.592Z,0
2022-11-02T02:10:01.972Z,0
2022-11-02T02:15:01.450Z,0
2022-11-02T02:20:01.999Z,1
2022-11-02T02:25:01.336Z,0
2022-11-02T02:30:01.694Z,0
2022-11-02T02:35:02.045Z,2
2022-11-02T02:40:01.456Z,8
2022-11-02T02:45:01.827Z,0
2022-11-02T02:50:02.291Z,1
2022-11-02T02:55:01.647Z,1
2022-11-02T03:00:02.015Z,1
2022-11-02T03:05:01.381Z,0
2022-11-02T03:10:01.892Z,0
2022-11-02T03:15:02.433Z,0
2022-11-02T03:20:01.866Z,2
2022-11-02T03:25:02.237Z,1
2022-11-02T03:30:01.598Z,1
2022-11-02T03:35:01.945Z,1
2022-11-02T03:40:01.324Z,1
2022-11-02T03:45:01.867Z,1
2022-11-02T03:50:02.211Z,1
2022-11-02T03:55:01.570Z,0
2022-11-02T04:00:02.058Z,1
2022-11-02T04:05:01.437Z,2
2022-11-02T04:10:01.884Z,1
2022-11-02T04:15:02.360Z,1
2022-11-02T04:20:01.779Z,1
2022-11-02T04:25:02.126Z,2
2022-11-02T04:30:01.503Z,1
2022-11-02T04:35:01.844Z,1
2022-11-02T04:40:02.261Z,2
2022-11-02T04:45:01.642Z,3
2022-11-02T04:50:01.994Z,1
2022-11-02T04:55:01.515Z,0
2022-11-02T05:00:01.872Z,2
2022-11-02T05:05:02.226Z,0
2022-11-02T05:10:01.611Z,0
2022-11-02T05:15:01.964Z,2
2022-11-02T05:20:01.399Z,0
2022-11-02T05:25:01.873Z,1
2022-11-02T05:30:01.467Z,0
2022-11-02T05:35:01.814Z,2
2022-11-02T05:40:02.194Z,1
2022-11-02T05:45:01.543Z,0
2022-11-02T05:50:02.025Z,0
2022-11-02T05:55:01.451Z,2
2022-11-02T06:00:01.983Z,1
2022-11-02T06:05:01.505Z,0
2022-11-02T06:10:01.910Z,0
2022-11-02T06:15:02.387Z,0
2022-11-02T06:20:01.937Z,7
2022-11-02T06:25:02.274Z,1
2022-11-02T06:30:01.747Z,0
2022-11-02T06:35:02.215Z,2
2022-11-02T06:40:01.615Z,1
2022-11-02T06:45:02.000Z,0
2022-11-02T06:50:01.359Z,1
2022-11-02T06:55:01.721Z,2
2022-11-02T07:00:02.212Z,0
2022-11-02T07:05:01.741Z,1
2022-11-02T07:10:02.250Z,0
2022-11-02T07:15:01.743Z,2
2022-11-02T07:20:02.296Z,5
2022-11-02T07:25:01.671Z,1
2022-11-02T07:30:02.046Z,2
2022-11-02T07:35:01.512Z,21
2022-11-02T07:40:01.914Z,21
2022-11-02T07:45:02.280Z,1
2022-11-02T07:50:01.623Z,4
2022-11-02T07:55:02.091Z,3
2022-11-02T08:00:01.444Z,5
2022-11-02T08:05:01.802Z,64
2022-11-02T08:10:02.329Z,11
2022-11-02T08:15:07.172Z,23
2022-11-02T08:20:02.226Z,8
2022-11-02T08:25:01.742Z,10
2022-11-02T08:30:02.264Z,12
2022-11-02T08:35:01.739Z,28
2022-11-02T08:40:02.256Z,15
2022-11-02T08:45:01.754Z,27
2022-11-02T08:50:02.239Z,19
2022-11-02T08:55:01.577Z,10
2022-11-02T09:00:02.126Z,37
2022-11-02T09:05:01.606Z,33
2022-11-02T09:10:02.018Z,12
2022-11-02T09:15:01.578Z,12
2022-11-02T09:20:02.141Z,41
2022-11-02T09:25:01.515Z,22
2022-11-02T09:30:01.901Z,51
2022-11-02T09:35:02.253Z,6
2022-11-02T09:40:01.775Z,4
2022-11-02T09:45:02.148Z,40
2022-11-02T09:50:01.614Z,46
2022-11-02T09:55:01.955Z,19
2022-11-02T10:00:01.456Z,4
2022-11-02T10:05:01.794Z,7
2022-11-02T10:10:02.310Z,14
2022-11-02T10:15:01.861Z,14
2022-11-02T10:20:02.308Z,24
2022-11-02T10:25:01.792Z,17
2022-11-02T10:30:02.144Z,64
2022-11-02T10:35:17.432Z,18
2022-11-02T10:40:02.016Z,16
2022-11-02T10:45:01.374Z,14
2022-11-02T10:50:01.871Z,17
2022-11-02T10:55:02.339Z,39
2022-11-02T11:00:01.841Z,23
2022-11-02T11:05:02.312Z,68
2022-11-02T11:10:01.706Z,44
2022-11-02T11:20:04.432Z,40
2022-11-02T11:25:01.929Z,78
2022-11-02T11:30:02.410Z,21
2022-11-02T11:35:01.908Z,59
2022-11-02T11:40:01.481Z,11
2022-11-02T11:45:01.974Z,29
2022-11-02T11:50:08.976Z,38
2022-11-02T11:55:02.323Z,33
2022-11-02T12:00:01.753Z,30
2022-11-02T12:05:02.254Z,29
2022-11-02T12:10:01.760Z,33
2022-11-02T12:15:06.704Z,33
2022-11-02T12:20:01.568Z,51
2022-11-02T12:25:02.037Z,26
2022-11-02T12:30:01.563Z,26
2022-11-02T12:35:27.235Z,24
2022-11-02T12:40:02.117Z,13
2022-11-02T12:45:01.596Z,15
2022-11-02T12:50:01.951Z,24
2022-11-02T12:55:02.415Z,23
2022-11-02T13:00:01.916Z,25
2022-11-02T13:05:02.389Z,21
2022-11-02T13:10:01.791Z,19
2022-11-02T13:15:02.176Z,26
2022-11-02T13:20:01.739Z,20
2022-11-02T13:25:02.111Z,22
2022-11-02T13:30:01.625Z,21
2022-11-02T13:35:02.105Z,20
2022-11-02T13:40:01.634Z,18
2022-11-02T13:45:02.028Z,17
2022-11-02T13:50:01.507Z,21
2022-11-02T13:55:01.990Z,17
2022-11-02T14:00:01.468Z,17
2022-11-02T14:05:01.818Z,18
2022-11-02T14:10:02.324Z,18
2022-11-02T14:15:01.814Z,17
2022-11-02T14:20:02.360Z,16
2022-11-02T14:25:01.835Z,19
2022-11-02T14:30:02.212Z,19
2022-11-02T14:35:01.730Z,19
2022-11-02T14:40:02.219Z,21
2022-11-02T14:45:01.765Z,25
2022-11-02T14:50:02.232Z,28
2022-11-02T14:55:01.711Z,31
2022-11-02T15:00:02.212Z,36
2022-11-02T15:05:01.694Z,36
2022-11-02T15:10:02.203Z,39
2022-11-02T15:15:01.685Z,36
2022-11-02T15:20:02.239Z,26
2022-11-02T15:25:01.594Z,33
2022-11-02T15:30:02.638Z,29
2022-11-02T15:35:02.352Z,39
2022-11-02T15:40:01.867Z,15
2022-11-02T15:45:09.444Z,33
2022-11-02T15:50:01.815Z,60
2022-11-02T15:55:02.163Z,8
2022-11-02T16:00:01.658Z,8
2022-11-02T16:05:02.136Z,68
2022-11-02T16:10:01.736Z,103
2022-11-02T16:15:02.229Z,2
2022-11-02T16:20:01.661Z,4
2022-11-02T16:25:02.017Z,30
2022-11-02T16:30:01.371Z,3
2022-11-02T16:35:01.713Z,3
2022-11-02T16:40:02.238Z,3
2022-11-02T16:45:01.667Z,20
2022-11-02T16:50:02.150Z,63
2022-11-02T16:55:01.629Z,121
2022-11-02T17:00:02.117Z,74
2022-11-02T17:05:05.845Z,59
2022-11-02T17:10:01.591Z,89
2022-11-02T17:15:01.946Z,40
2022-11-02T17:20:01.594Z,21
2022-11-02T17:30:01.538Z,3
2022-11-02T17:35:01.923Z,4
2022-11-02T17:40:01.352Z,2
2022-11-02T17:45:01.770Z,26
2022-11-02T17:50:02.330Z,58
2022-11-02T17:55:01.806Z,4
2022-11-02T18:00:02.162Z,2
2022-11-02T18:05:01.631Z,3
2022-11-02T18:10:02.146Z,4
2022-11-02T18:15:01.634Z,3
2022-11-02T18:20:02.186Z,3
2022-11-02T18:25:01.527Z,4
2022-11-02T18:30:02.012Z,5
2022-11-02T18:35:01.497Z,3
2022-11-02T18:40:02.017Z,5
2022-11-02T18:45:01.384Z,5
2022-11-02T18:50:01.745Z,4
2022-11-02T18:55:02.100Z,2
2022-11-02T19:00:01.621Z,3
2022-11-02T19:05:02.096Z,3
2022-11-02T19:10:03.984Z,32
2022-11-02T19:15:01.705Z,32
2022-11-02T19:20:02.128Z,6
2022-11-02T19:25:01.613Z,11
2022-11-02T19:30:01.998Z,16
2022-11-02T19:35:01.353Z,7
2022-11-02T19:40:01.869Z,12
2022-11-02T19:45:02.258Z,3
2022-11-02T19:50:01.749Z,4
2022-11-02T19:55:02.221Z,3
2022-11-02T20:00:01.700Z,3
2022-11-02T20:05:02.175Z,5
2022-11-02T20:10:01.677Z,2
2022-11-02T20:15:02.056Z,2
2022-11-02T20:20:01.615Z,4
2022-11-02T20:25:02.126Z,4
2022-11-02T20:30:01.480Z,4
2022-11-02T20:35:01.852Z,7
2022-11-02T20:40:02.371Z,3
2022-11-02T20:45:01.760Z,2
2022-11-02T20:50:02.115Z,2
2022-11-02T20:55:01.608Z,11
2022-11-02T21:00:02.112Z,2
2022-11-02T21:05:01.477Z,3
2022-11-02T21:10:02.012Z,3
2022-11-02T21:15:01.510Z,4
2022-11-02T21:20:21.161Z,5
2022-11-02T21:25:01.482Z,11
2022-11-02T21:30:01.961Z,2
2022-11-02T21:35:01.435Z,2
2022-11-02T21:40:01.951Z,1
2022-11-02T21:45:01.435Z,3
2022-11-02T21:50:01.906Z,3
2022-11-02T21:55:02.373Z,4
2022-11-02T22:00:01.777Z,8
2022-11-02T22:05:02.580Z,7
2022-11-02T22:10:01.984Z,8
2022-11-02T22:15:01.508Z,11
2022-11-02T22:20:02.061Z,12
2022-11-02T22:25:01.549Z,10
2022-11-02T22:30:01.930Z,3
2022-11-02T22:35:02.305Z,2
2022-11-02T22:40:01.796Z,4
2022-11-02T22:45:02.146Z,3
2022-11-02T22:50:01.608Z,3
2022-11-02T22:55:02.076Z,2
2022-11-02T23:00:01.564Z,3
2022-11-02T23:05:01.859Z,22
2022-11-02T23:10:02.366Z,3
2022-11-02T23:15:01.909Z,2
2022-11-02T23:20:02.669Z,4
2022-11-02T23:25:02.140Z,3
2022-11-02T23:30:01.501Z,2
2022-11-02T23:35:01.979Z,4
2022-11-02T23:40:01.422Z,2
2022-11-02T23:45:01.776Z,2
2022-11-02T23:50:02.246Z,2
2022-11-02T23:55:01.708Z,3
